sensor_id;sensor_type;location;lat;lon;timestamp;P1;durP1;ratioP1;P2;durP2;ratioP2
27408;SDS011;20413;50.782;7.152;2022-10-23T00:01:36;8.60;;;3.78;;
27408;SDS011;20413;50.782;7.152;2022-10-23T00:04:07;5.28;;;3.13;;
27408;SDS011;20413;50.782;7.152;2022-10-23T00:06:34;7.15;;;3.53;;
27408;SDS011;20413;50.782;7.152;2022-10-23T00:09:01;9.80;;;4.13;;
27408;SDS011;20413;50.782;7.152;2022-10-23T00:11:28;10.95;;;4.53;;
27408;SDS011;20413;50.782;7.152;2022-10-23T00:13:55;7.80;;;4.10;;
27408;SDS011;20413;50.782;7.152;2022-10-23T00:16:21;7.17;;;4.00;;
27408;SDS011;20413;50.782;7.152;2022-10-23T00:18:47;6.60;;;3.83;;
27408;SDS011;20413;50.782;7.152;2022-10-23T00:21:14;9.43;;;3.53;;
27408;SDS011;20413;50.782;7.152;2022-10-23T00:23:41;19.02;;;4.60;;
27408;SDS011;20413;50.782;7.152;2022-10-23T00:26:07;10.10;;;4.18;;
27408;SDS011;20413;50.782;7.152;2022-10-23T00:28:35;5.80;;;3.20;;
27408;SDS011;20413;50.782;7.152;2022-10-23T00:31:01;5.88;;;3.45;;
27408;SDS011;20413;50.782;7.152;2022-10-23T00:33:27;7.80;;;3.65;;
27408;SDS011;20413;50.782;7.152;2022-10-23T00:35:53;10.55;;;3.47;;
27408;SDS011;20413;50.782;7.152;2022-10-23T00:38:19;5.63;;;3.40;;
27408;SDS011;20413;50.782;7.152;2022-10-23T00:40:54;6.72;;;3.15;;
27408;SDS011;20413;50.782;7.152;2022-10-23T00:43:21;7.90;;;3.03;;
27408;SDS011;20413;50.782;7.152;2022-10-23T00:45:48;7.97;;;3.50;;
27408;SDS011;20413;50.782;7.152;2022-10-23T00:48:14;5.65;;;3.40;;
27408;SDS011;20413;50.782;7.152;2022-10-23T00:50:40;14.02;;;4.15;;
27408;SDS011;20413;50.782;7.152;2022-10-23T00:53:07;6.00;;;3.85;;
27408;SDS011;20413;50.782;7.152;2022-10-23T00:55:34;6.70;;;3.78;;
27408;SDS011;20413;50.782;7.152;2022-10-23T00:58:00;10.43;;;4.43;;
27408;SDS011;20413;50.782;7.152;2022-10-23T01:00:27;11.13;;;3.95;;
27408;SDS011;20413;50.782;7.152;2022-10-23T01:02:54;10.83;;;3.60;;
27408;SDS011;20413;50.782;7.152;2022-10-23T01:05:24;10.53;;;3.77;;
27408;SDS011;20413;50.782;7.152;2022-10-23T01:07:53;21.67;;;3.83;;
27408;SDS011;20413;50.782;7.152;2022-10-23T01:10:35;6.05;;;3.30;;
27408;SDS011;20413;50.782;7.152;2022-10-23T01:13:07;15.95;;;3.47;;
27408;SDS011;20413;50.782;7.152;2022-10-23T01:15:36;9.57;;;3.30;;
27408;SDS011;20413;50.782;7.152;2022-10-23T01:18:06;9.77;;;3.15;;
27408;SDS011;20413;50.782;7.152;2022-10-23T01:28:10;14.60;;;5.25;;
27408;SDS011;20413;50.782;7.152;2022-10-23T01:30:38;8.57;;;3.58;;
27408;SDS011;20413;50.782;7.152;2022-10-23T01:33:05;5.85;;;3.42;;
27408;SDS011;20413;50.782;7.152;2022-10-23T01:35:37;7.55;;;2.50;;
27408;SDS011;20413;50.782;7.152;2022-10-23T01:38:24;13.18;;;2.88;;
27408;SDS011;20413;50.782;7.152;2022-10-23T01:43:29;6.05;;;2.58;;
27408;SDS011;20413;50.782;7.152;2022-10-23T01:46:00;8.40;;;3.28;;
27408;SDS011;20413;50.782;7.152;2022-10-23T01:48:28;10.77;;;3.15;;
27408;SDS011;20413;50.782;7.152;2022-10-23T01:50:55;9.43;;;3.20;;
27408;SDS011;20413;50.782;7.152;2022-10-23T01:53:22;8.80;;;3.40;;
27408;SDS011;20413;50.782;7.152;2022-10-23T01:55:50;9.20;;;2.97;;
27408;SDS011;20413;50.782;7.152;2022-10-23T01:58:16;7.03;;;3.10;;
27408;SDS011;20413;50.782;7.152;2022-10-23T02:00:45;20.50;;;10.23;;
27408;SDS011;20413;50.782;7.152;2022-10-23T02:03:12;9.52;;;3.33;;
27408;SDS011;20413;50.782;7.152;2022-10-23T02:05:39;9.98;;;3.42;;
27408;SDS011;20413;50.782;7.152;2022-10-23T02:08:05;10.40;;;2.92;;
27408;SDS011;20413;50.782;7.152;2022-10-23T02:10:39;10.18;;;2.72;;
27408;SDS011;20413;50.782;7.152;2022-10-23T02:13:08;8.32;;;2.60;;
27408;SDS011;20413;50.782;7.152;2022-10-23T02:15:35;7.63;;;2.50;;
27408;SDS011;20413;50.782;7.152;2022-10-23T02:18:06;6.60;;;2.80;;
27408;SDS011;20413;50.782;7.152;2022-10-23T02:23:06;9.38;;;3.30;;
27408;SDS011;20413;50.782;7.152;2022-10-23T02:25:36;24.17;;;8.88;;
27408;SDS011;20413;50.782;7.152;2022-10-23T02:28:06;11.20;;;5.32;;
27408;SDS011;20413;50.782;7.152;2022-10-23T02:30:33;8.82;;;3.53;;
27408;SDS011;20413;50.782;7.152;2022-10-23T02:33:00;6.63;;;2.75;;
27408;SDS011;20413;50.782;7.152;2022-10-23T02:35:27;5.80;;;2.53;;
27408;SDS011;20413;50.782;7.152;2022-10-23T02:37:57;6.43;;;2.55;;
27408;SDS011;20413;50.782;7.152;2022-10-23T02:40:24;6.32;;;2.80;;
27408;SDS011;20413;50.782;7.152;2022-10-23T02:43:00;7.03;;;2.55;;
27408;SDS011;20413;50.782;7.152;2022-10-23T02:48:16;8.90;;;2.58;;
27408;SDS011;20413;50.782;7.152;2022-10-23T02:53:29;8.60;;;2.92;;
27408;SDS011;20413;50.782;7.152;2022-10-23T02:56:12;11.75;;;2.90;;
27408;SDS011;20413;50.782;7.152;2022-10-23T02:58:58;4.65;;;2.80;;
27408;SDS011;20413;50.782;7.152;2022-10-23T03:01:34;8.82;;;2.63;;
27408;SDS011;20413;50.782;7.152;2022-10-23T03:04:02;12.38;;;2.72;;
27408;SDS011;20413;50.782;7.152;2022-10-23T03:06:31;9.38;;;2.50;;
27408;SDS011;20413;50.782;7.152;2022-10-23T03:08:58;8.23;;;3.13;;
27408;SDS011;20413;50.782;7.152;2022-10-23T03:11:24;7.88;;;2.00;;
27408;SDS011;20413;50.782;7.152;2022-10-23T03:13:50;14.73;;;3.42;;
27408;SDS011;20413;50.782;7.152;2022-10-23T03:16:16;4.88;;;2.30;;
27408;SDS011;20413;50.782;7.152;2022-10-23T03:18:41;5.93;;;2.40;;
27408;SDS011;20413;50.782;7.152;2022-10-23T03:21:07;6.80;;;2.10;;
27408;SDS011;20413;50.782;7.152;2022-10-23T03:23:33;8.23;;;2.55;;
27408;SDS011;20413;50.782;7.152;2022-10-23T03:25:59;9.88;;;2.42;;
27408;SDS011;20413;50.782;7.152;2022-10-23T03:28:24;10.88;;;4.45;;
27408;SDS011;20413;50.782;7.152;2022-10-23T03:30:50;11.85;;;5.30;;
27408;SDS011;20413;50.782;7.152;2022-10-23T03:33:16;9.75;;;3.40;;
27408;SDS011;20413;50.782;7.152;2022-10-23T03:35:42;5.32;;;2.30;;
27408;SDS011;20413;50.782;7.152;2022-10-23T03:38:07;6.82;;;2.25;;
27408;SDS011;20413;50.782;7.152;2022-10-23T03:40:33;3.33;;;2.00;;
27408;SDS011;20413;50.782;7.152;2022-10-23T03:42:59;5.15;;;2.30;;
27408;SDS011;20413;50.782;7.152;2022-10-23T03:45:24;9.38;;;3.28;;
27408;SDS011;20413;50.782;7.152;2022-10-23T03:47:50;8.57;;;1.95;;
27408;SDS011;20413;50.782;7.152;2022-10-23T03:50:16;5.75;;;1.90;;
27408;SDS011;20413;50.782;7.152;2022-10-23T03:52:42;8.15;;;3.95;;
27408;SDS011;20413;50.782;7.152;2022-10-23T03:55:08;10.02;;;3.90;;
27408;SDS011;20413;50.782;7.152;2022-10-23T03:57:34;9.05;;;2.70;;
27408;SDS011;20413;50.782;7.152;2022-10-23T04:00:00;9.70;;;3.30;;
27408;SDS011;20413;50.782;7.152;2022-10-23T04:02:26;5.93;;;1.73;;
27408;SDS011;20413;50.782;7.152;2022-10-23T04:04:51;5.78;;;1.88;;
27408;SDS011;20413;50.782;7.152;2022-10-23T04:07:17;5.80;;;2.35;;
27408;SDS011;20413;50.782;7.152;2022-10-23T04:09:42;3.95;;;2.10;;
27408;SDS011;20413;50.782;7.152;2022-10-23T04:12:08;4.68;;;2.20;;
27408;SDS011;20413;50.782;7.152;2022-10-23T04:14:33;5.82;;;2.17;;
27408;SDS011;20413;50.782;7.152;2022-10-23T04:16:59;6.28;;;2.00;;
27408;SDS011;20413;50.782;7.152;2022-10-23T04:19:24;7.82;;;2.33;;
27408;SDS011;20413;50.782;7.152;2022-10-23T04:21:50;6.90;;;2.00;;
27408;SDS011;20413;50.782;7.152;2022-10-23T04:24:16;6.65;;;1.58;;
27408;SDS011;20413;50.782;7.152;2022-10-23T04:26:41;8.52;;;2.65;;
27408;SDS011;20413;50.782;7.152;2022-10-23T04:29:07;8.15;;;2.42;;
27408;SDS011;20413;50.782;7.152;2022-10-23T04:31:32;6.55;;;2.42;;
27408;SDS011;20413;50.782;7.152;2022-10-23T04:33:58;8.23;;;2.38;;
27408;SDS011;20413;50.782;7.152;2022-10-23T04:36:24;5.72;;;1.80;;
27408;SDS011;20413;50.782;7.152;2022-10-23T04:38:49;4.68;;;2.05;;
27408;SDS011;20413;50.782;7.152;2022-10-23T04:41:15;9.35;;;1.95;;
27408;SDS011;20413;50.782;7.152;2022-10-23T04:43:40;3.55;;;1.92;;
27408;SDS011;20413;50.782;7.152;2022-10-23T04:46:06;5.55;;;1.95;;
27408;SDS011;20413;50.782;7.152;2022-10-23T04:48:32;5.90;;;1.67;;
27408;SDS011;20413;50.782;7.152;2022-10-23T04:50:58;9.55;;;1.95;;
27408;SDS011;20413;50.782;7.152;2022-10-23T04:53:26;3.75;;;1.90;;
27408;SDS011;20413;50.782;7.152;2022-10-23T04:55:52;5.28;;;1.75;;
27408;SDS011;20413;50.782;7.152;2022-10-23T04:58:19;11.80;;;1.93;;
27408;SDS011;20413;50.782;7.152;2022-10-23T05:00:46;6.35;;;1.92;;
27408;SDS011;20413;50.782;7.152;2022-10-23T05:03:12;7.75;;;2.25;;
27408;SDS011;20413;50.782;7.152;2022-10-23T05:05:39;2.30;;;1.85;;
27408;SDS011;20413;50.782;7.152;2022-10-23T05:08:05;4.97;;;1.85;;
27408;SDS011;20413;50.782;7.152;2022-10-23T05:10:31;10.63;;;2.10;;
27408;SDS011;20413;50.782;7.152;2022-10-23T05:12:56;6.40;;;2.17;;
27408;SDS011;20413;50.782;7.152;2022-10-23T05:15:22;4.10;;;1.90;;
27408;SDS011;20413;50.782;7.152;2022-10-23T05:17:48;5.80;;;2.00;;
27408;SDS011;20413;50.782;7.152;2022-10-23T05:20:20;4.72;;;1.95;;
27408;SDS011;20413;50.782;7.152;2022-10-23T05:22:49;6.30;;;2.45;;
27408;SDS011;20413;50.782;7.152;2022-10-23T05:25:17;6.72;;;2.20;;
27408;SDS011;20413;50.782;7.152;2022-10-23T05:27:43;6.55;;;2.63;;
27408;SDS011;20413;50.782;7.152;2022-10-23T05:30:09;7.00;;;2.40;;
27408;SDS011;20413;50.782;7.152;2022-10-23T05:32:35;2.20;;;1.63;;
27408;SDS011;20413;50.782;7.152;2022-10-23T05:35:02;7.38;;;2.20;;
27408;SDS011;20413;50.782;7.152;2022-10-23T05:37:32;7.88;;;2.22;;
27408;SDS011;20413;50.782;7.152;2022-10-23T05:39:58;4.20;;;2.10;;
27408;SDS011;20413;50.782;7.152;2022-10-23T05:42:24;7.97;;;2.38;;
27408;SDS011;20413;50.782;7.152;2022-10-23T05:44:50;7.55;;;2.13;;
27408;SDS011;20413;50.782;7.152;2022-10-23T05:47:15;4.00;;;2.30;;
27408;SDS011;20413;50.782;7.152;2022-10-23T05:49:41;7.95;;;2.50;;
27408;SDS011;20413;50.782;7.152;2022-10-23T05:52:09;6.15;;;1.92;;
27408;SDS011;20413;50.782;7.152;2022-10-23T05:54:35;6.80;;;2.05;;
27408;SDS011;20413;50.782;7.152;2022-10-23T05:57:01;4.18;;;2.53;;
27408;SDS011;20413;50.782;7.152;2022-10-23T05:59:26;10.68;;;3.03;;
27408;SDS011;20413;50.782;7.152;2022-10-23T06:01:52;7.65;;;2.80;;
27408;SDS011;20413;50.782;7.152;2022-10-23T06:04:17;6.70;;;2.75;;
27408;SDS011;20413;50.782;7.152;2022-10-23T06:06:44;5.03;;;2.53;;
27408;SDS011;20413;50.782;7.152;2022-10-23T06:09:10;7.70;;;2.83;;
27408;SDS011;20413;50.782;7.152;2022-10-23T06:11:36;5.25;;;2.38;;
27408;SDS011;20413;50.782;7.152;2022-10-23T06:14:01;5.88;;;2.28;;
27408;SDS011;20413;50.782;7.152;2022-10-23T06:16:27;9.43;;;2.53;;
27408;SDS011;20413;50.782;7.152;2022-10-23T06:18:53;2.95;;;2.15;;
27408;SDS011;20413;50.782;7.152;2022-10-23T06:21:19;9.73;;;2.20;;
27408;SDS011;20413;50.782;7.152;2022-10-23T06:23:45;6.38;;;2.72;;
27408;SDS011;20413;50.782;7.152;2022-10-23T06:26:11;6.47;;;2.58;;
27408;SDS011;20413;50.782;7.152;2022-10-23T06:28:39;8.68;;;2.67;;
27408;SDS011;20413;50.782;7.152;2022-10-23T06:31:09;5.85;;;2.45;;
27408;SDS011;20413;50.782;7.152;2022-10-23T06:33:36;7.15;;;2.30;;
27408;SDS011;20413;50.782;7.152;2022-10-23T06:36:02;8.68;;;2.30;;
27408;SDS011;20413;50.782;7.152;2022-10-23T06:38:29;6.43;;;2.40;;
27408;SDS011;20413;50.782;7.152;2022-10-23T06:41:00;3.63;;;2.05;;
27408;SDS011;20413;50.782;7.152;2022-10-23T06:43:26;9.70;;;2.53;;
27408;SDS011;20413;50.782;7.152;2022-10-23T06:45:52;9.23;;;2.72;;
27408;SDS011;20413;50.782;7.152;2022-10-23T06:48:17;3.60;;;2.28;;
27408;SDS011;20413;50.782;7.152;2022-10-23T06:50:43;3.33;;;2.10;;
27408;SDS011;20413;50.782;7.152;2022-10-23T06:53:08;3.13;;;2.40;;
27408;SDS011;20413;50.782;7.152;2022-10-23T06:55:36;4.90;;;1.77;;
27408;SDS011;20413;50.782;7.152;2022-10-23T06:58:04;11.70;;;2.67;;
27408;SDS011;20413;50.782;7.152;2022-10-23T07:00:34;7.85;;;2.10;;
27408;SDS011;20413;50.782;7.152;2022-10-23T07:03:01;5.90;;;2.13;;
27408;SDS011;20413;50.782;7.152;2022-10-23T07:05:27;6.35;;;2.00;;
27408;SDS011;20413;50.782;7.152;2022-10-23T07:07:53;4.95;;;2.25;;
27408;SDS011;20413;50.782;7.152;2022-10-23T07:10:18;10.18;;;2.72;;
27408;SDS011;20413;50.782;7.152;2022-10-23T07:12:44;7.15;;;2.13;;
27408;SDS011;20413;50.782;7.152;2022-10-23T07:15:11;8.48;;;2.40;;
27408;SDS011;20413;50.782;7.152;2022-10-23T07:17:37;5.43;;;2.33;;
27408;SDS011;20413;50.782;7.152;2022-10-23T07:20:02;6.90;;;2.47;;
27408;SDS011;20413;50.782;7.152;2022-10-23T07:22:28;6.95;;;2.28;;
27408;SDS011;20413;50.782;7.152;2022-10-23T07:24:54;6.70;;;1.90;;
27408;SDS011;20413;50.782;7.152;2022-10-23T07:27:19;6.20;;;2.28;;
27408;SDS011;20413;50.782;7.152;2022-10-23T07:29:48;5.95;;;2.10;;
27408;SDS011;20413;50.782;7.152;2022-10-23T07:32:14;7.93;;;2.33;;
27408;SDS011;20413;50.782;7.152;2022-10-23T07:34:40;3.50;;;2.20;;
27408;SDS011;20413;50.782;7.152;2022-10-23T07:37:05;8.43;;;3.35;;
27408;SDS011;20413;50.782;7.152;2022-10-23T07:39:31;7.45;;;2.67;;
27408;SDS011;20413;50.782;7.152;2022-10-23T07:41:57;6.25;;;2.17;;
27408;SDS011;20413;50.782;7.152;2022-10-23T07:44:22;8.48;;;2.83;;
27408;SDS011;20413;50.782;7.152;2022-10-23T07:46:48;4.07;;;2.38;;
27408;SDS011;20413;50.782;7.152;2022-10-23T07:49:13;4.22;;;2.10;;
27408;SDS011;20413;50.782;7.152;2022-10-23T07:51:39;4.63;;;2.72;;
27408;SDS011;20413;50.782;7.152;2022-10-23T07:56:35;5.05;;;2.17;;
27408;SDS011;20413;50.782;7.152;2022-10-23T07:59:00;7.32;;;2.22;;
27408;SDS011;20413;50.782;7.152;2022-10-23T08:01:30;3.00;;;2.35;;
27408;SDS011;20413;50.782;7.152;2022-10-23T08:03:57;3.08;;;2.10;;
27408;SDS011;20413;50.782;7.152;2022-10-23T08:06:23;3.92;;;1.95;;
27408;SDS011;20413;50.782;7.152;2022-10-23T08:08:48;6.93;;;2.42;;
27408;SDS011;20413;50.782;7.152;2022-10-23T08:11:14;5.25;;;2.15;;
27408;SDS011;20413;50.782;7.152;2022-10-23T08:13:48;8.45;;;2.15;;
27408;SDS011;20413;50.782;7.152;2022-10-23T08:16:14;2.92;;;1.90;;
27408;SDS011;20413;50.782;7.152;2022-10-23T08:18:40;3.78;;;1.70;;
27408;SDS011;20413;50.782;7.152;2022-10-23T08:21:07;8.80;;;2.38;;
27408;SDS011;20413;50.782;7.152;2022-10-23T08:23:33;3.75;;;1.70;;
27408;SDS011;20413;50.782;7.152;2022-10-23T08:26:00;3.33;;;1.50;;
27408;SDS011;20413;50.782;7.152;2022-10-23T08:28:27;2.78;;;1.50;;
27408;SDS011;20413;50.782;7.152;2022-10-23T08:30:53;4.57;;;1.63;;
27408;SDS011;20413;50.782;7.152;2022-10-23T08:33:19;3.67;;;1.67;;
27408;SDS011;20413;50.782;7.152;2022-10-23T08:35:45;1.45;;;1.35;;
27408;SDS011;20413;50.782;7.152;2022-10-23T08:38:11;5.50;;;1.50;;
27408;SDS011;20413;50.782;7.152;2022-10-23T08:40:37;3.90;;;1.40;;
27408;SDS011;20413;50.782;7.152;2022-10-23T08:45:56;3.00;;;1.55;;
27408;SDS011;20413;50.782;7.152;2022-10-23T08:50:56;1.80;;;1.40;;
27408;SDS011;20413;50.782;7.152;2022-10-23T08:53:39;5.05;;;1.25;;
27408;SDS011;20413;50.782;7.152;2022-10-23T08:56:16;1.92;;;1.13;;
27408;SDS011;20413;50.782;7.152;2022-10-23T08:58:56;2.53;;;1.40;;
27408;SDS011;20413;50.782;7.152;2022-10-23T09:02:01;1.48;;;1.38;;
27408;SDS011;20413;50.782;7.152;2022-10-23T09:04:37;2.47;;;1.08;;
27408;SDS011;20413;50.782;7.152;2022-10-23T09:09:48;6.38;;;1.13;;
27408;SDS011;20413;50.782;7.152;2022-10-23T09:12:25;4.75;;;1.20;;
27408;SDS011;20413;50.782;7.152;2022-10-23T09:22:44;4.55;;;1.10;;
27408;SDS011;20413;50.782;7.152;2022-10-23T09:25:32;2.47;;;1.52;;
27408;SDS011;20413;50.782;7.152;2022-10-23T09:28:01;3.80;;;0.93;;
27408;SDS011;20413;50.782;7.152;2022-10-23T09:30:34;5.05;;;1.20;;
27408;SDS011;20413;50.782;7.152;2022-10-23T09:33:24;4.00;;;1.10;;
27408;SDS011;20413;50.782;7.152;2022-10-23T09:41:01;2.30;;;1.00;;
27408;SDS011;20413;50.782;7.152;2022-10-23T09:43:34;2.75;;;1.30;;
27408;SDS011;20413;50.782;7.152;2022-10-23T09:46:01;3.90;;;1.10;;
27408;SDS011;20413;50.782;7.152;2022-10-23T09:48:30;2.88;;;1.25;;
27408;SDS011;20413;50.782;7.152;2022-10-23T09:50:57;7.78;;;2.25;;
27408;SDS011;20413;50.782;7.152;2022-10-23T09:53:32;3.83;;;1.42;;
27408;SDS011;20413;50.782;7.152;2022-10-23T09:56:46;2.00;;;0.93;;
27408;SDS011;20413;50.782;7.152;2022-10-23T09:58:55;5.03;;;1.45;;
27408;SDS011;20413;50.782;7.152;2022-10-23T10:01:24;2.80;;;1.10;;
27408;SDS011;20413;50.782;7.152;2022-10-23T10:03:51;1.65;;;0.90;;
27408;SDS011;20413;50.782;7.152;2022-10-23T10:06:20;2.05;;;1.17;;
27408;SDS011;20413;50.782;7.152;2022-10-23T10:08:49;2.42;;;0.80;;
27408;SDS011;20413;50.782;7.152;2022-10-23T10:11:29;2.75;;;0.93;;
27408;SDS011;20413;50.782;7.152;2022-10-23T10:17:10;1.88;;;0.82;;
27408;SDS011;20413;50.782;7.152;2022-10-23T10:19:57;4.30;;;1.25;;
27408;SDS011;20413;50.782;7.152;2022-10-23T10:25:33;2.50;;;2.30;;
27408;SDS011;20413;50.782;7.152;2022-10-23T10:31:01;8.50;;;7.30;;
27408;SDS011;20413;50.782;7.152;2022-10-23T10:33:48;2.50;;;2.15;;
27408;SDS011;20413;50.782;7.152;2022-10-23T10:36:38;4.57;;;1.33;;
27408;SDS011;20413;50.782;7.152;2022-10-23T10:44:49;2.03;;;0.90;;
27408;SDS011;20413;50.782;7.152;2022-10-23T10:47:32;1.40;;;1.15;;
27408;SDS011;20413;50.782;7.152;2022-10-23T10:50:25;4.55;;;3.78;;
27408;SDS011;20413;50.782;7.152;2022-10-23T10:53:13;3.00;;;0.98;;
27408;SDS011;20413;50.782;7.152;2022-10-23T10:55:42;2.30;;;0.90;;
27408;SDS011;20413;50.782;7.152;2022-10-23T11:00:39;0.77;;;0.75;;
27408;SDS011;20413;50.782;7.152;2022-10-23T11:05:48;4.05;;;1.15;;
27408;SDS011;20413;50.782;7.152;2022-10-23T11:08:34;2.08;;;0.93;;
27408;SDS011;20413;50.782;7.152;2022-10-23T11:11:08;4.20;;;1.20;;
27408;SDS011;20413;50.782;7.152;2022-10-23T11:13:42;5.72;;;2.40;;
27408;SDS011;20413;50.782;7.152;2022-10-23T11:16:11;5.00;;;3.58;;
27408;SDS011;20413;50.782;7.152;2022-10-23T11:19:00;6.32;;;2.40;;
27408;SDS011;20413;50.782;7.152;2022-10-23T11:21:34;3.90;;;1.25;;
27408;SDS011;20413;50.782;7.152;2022-10-23T11:24:17;2.40;;;1.13;;
27408;SDS011;20413;50.782;7.152;2022-10-23T11:30:07;5.03;;;1.08;;
27408;SDS011;20413;50.782;7.152;2022-10-23T11:35:37;4.70;;;1.35;;
27408;SDS011;20413;50.782;7.152;2022-10-23T11:40:42;1.55;;;1.25;;
27408;SDS011;20413;50.782;7.152;2022-10-23T11:43:12;3.50;;;1.45;;
27408;SDS011;20413;50.782;7.152;2022-10-23T11:45:49;1.90;;;0.95;;
27408;SDS011;20413;50.782;7.152;2022-10-23T11:48:22;1.42;;;0.85;;
27408;SDS011;20413;50.782;7.152;2022-10-23T11:50:59;0.90;;;0.90;;
27408;SDS011;20413;50.782;7.152;2022-10-23T11:56:19;2.88;;;1.23;;
27408;SDS011;20413;50.782;7.152;2022-10-23T11:58:41;3.58;;;1.15;;
27408;SDS011;20413;50.782;7.152;2022-10-23T12:01:18;3.00;;;1.13;;
27408;SDS011;20413;50.782;7.152;2022-10-23T12:06:38;3.17;;;1.13;;
27408;SDS011;20413;50.782;7.152;2022-10-23T12:09:21;7.63;;;1.52;;
27408;SDS011;20413;50.782;7.152;2022-10-23T12:14:38;4.05;;;1.00;;
27408;SDS011;20413;50.782;7.152;2022-10-23T12:19:51;2.73;;;0.87;;
27408;SDS011;20413;50.782;7.152;2022-10-23T12:22:19;2.55;;;1.35;;
27408;SDS011;20413;50.782;7.152;2022-10-23T12:24:56;1.63;;;1.13;;
27408;SDS011;20413;50.782;7.152;2022-10-23T12:30:18;7.18;;;1.65;;
27408;SDS011;20413;50.782;7.152;2022-10-23T12:38:21;3.28;;;1.08;;
27408;SDS011;20413;50.782;7.152;2022-10-23T12:40:52;2.22;;;1.10;;
27408;SDS011;20413;50.782;7.152;2022-10-23T12:43:28;2.33;;;1.40;;
27408;SDS011;20413;50.782;7.152;2022-10-23T12:46:02;3.38;;;0.90;;
27408;SDS011;20413;50.782;7.152;2022-10-23T12:48:49;2.75;;;1.38;;
27408;SDS011;20413;50.782;7.152;2022-10-23T12:51:22;3.85;;;2.13;;
27408;SDS011;20413;50.782;7.152;2022-10-23T12:53:49;5.07;;;1.77;;
27408;SDS011;20413;50.782;7.152;2022-10-23T12:56:15;3.53;;;1.73;;
27408;SDS011;20413;50.782;7.152;2022-10-23T12:58:48;4.55;;;1.80;;
27408;SDS011;20413;50.782;7.152;2022-10-23T13:01:27;4.63;;;1.60;;
27408;SDS011;20413;50.782;7.152;2022-10-23T13:04:09;2.10;;;1.25;;
27408;SDS011;20413;50.782;7.152;2022-10-23T13:06:47;5.82;;;1.35;;
27408;SDS011;20413;50.782;7.152;2022-10-23T13:09:37;2.53;;;1.60;;
27408;SDS011;20413;50.782;7.152;2022-10-23T13:12:03;1.85;;;1.40;;
27408;SDS011;20413;50.782;7.152;2022-10-23T13:14:36;2.22;;;1.83;;
27408;SDS011;20413;50.782;7.152;2022-10-23T13:17:05;1.85;;;1.20;;
27408;SDS011;20413;50.782;7.152;2022-10-23T13:19:33;10.73;;;1.88;;
27408;SDS011;20413;50.782;7.152;2022-10-23T13:21:59;6.13;;;1.98;;
27408;SDS011;20413;50.782;7.152;2022-10-23T13:24:27;4.18;;;1.38;;
27408;SDS011;20413;50.782;7.152;2022-10-23T13:26:54;2.75;;;1.40;;
27408;SDS011;20413;50.782;7.152;2022-10-23T13:29:25;0.98;;;0.88;;
27408;SDS011;20413;50.782;7.152;2022-10-23T13:31:53;2.28;;;1.27;;
27408;SDS011;20413;50.782;7.152;2022-10-23T13:34:26;2.47;;;1.63;;
27408;SDS011;20413;50.782;7.152;2022-10-23T13:36:54;3.47;;;1.13;;
27408;SDS011;20413;50.782;7.152;2022-10-23T13:39:21;2.60;;;1.30;;
27408;SDS011;20413;50.782;7.152;2022-10-23T13:41:51;1.58;;;1.40;;
27408;SDS011;20413;50.782;7.152;2022-10-23T13:44:21;2.17;;;1.35;;
27408;SDS011;20413;50.782;7.152;2022-10-23T13:46:48;7.63;;;1.20;;
27408;SDS011;20413;50.782;7.152;2022-10-23T13:49:16;7.07;;;1.58;;
27408;SDS011;20413;50.782;7.152;2022-10-23T13:51:49;5.47;;;1.30;;
27408;SDS011;20413;50.782;7.152;2022-10-23T13:54:18;2.83;;;1.05;;
27408;SDS011;20413;50.782;7.152;2022-10-23T13:56:46;3.38;;;1.33;;
27408;SDS011;20413;50.782;7.152;2022-10-23T13:59:12;5.47;;;1.50;;
27408;SDS011;20413;50.782;7.152;2022-10-23T14:01:38;3.15;;;1.45;;
27408;SDS011;20413;50.782;7.152;2022-10-23T14:04:04;4.72;;;1.30;;
27408;SDS011;20413;50.782;7.152;2022-10-23T14:06:30;4.20;;;1.35;;
27408;SDS011;20413;50.782;7.152;2022-10-23T14:08:57;3.45;;;1.30;;
27408;SDS011;20413;50.782;7.152;2022-10-23T14:11:22;2.67;;;1.23;;
27408;SDS011;20413;50.782;7.152;2022-10-23T14:13:48;2.42;;;1.70;;
27408;SDS011;20413;50.782;7.152;2022-10-23T14:16:15;3.28;;;1.40;;
27408;SDS011;20413;50.782;7.152;2022-10-23T14:18:42;3.00;;;1.45;;
27408;SDS011;20413;50.782;7.152;2022-10-23T14:21:10;10.13;;;1.55;;
27408;SDS011;20413;50.782;7.152;2022-10-23T14:26:02;7.35;;;1.33;;
27408;SDS011;20413;50.782;7.152;2022-10-23T14:28:29;3.90;;;1.40;;
27408;SDS011;20413;50.782;7.152;2022-10-23T14:30:55;2.38;;;1.85;;
27408;SDS011;20413;50.782;7.152;2022-10-23T14:33:20;2.45;;;1.27;;
27408;SDS011;20413;50.782;7.152;2022-10-23T14:35:48;8.20;;;1.60;;
27408;SDS011;20413;50.782;7.152;2022-10-23T14:38:14;1.50;;;1.25;;
27408;SDS011;20413;50.782;7.152;2022-10-23T14:40:39;5.50;;;1.20;;
27408;SDS011;20413;50.782;7.152;2022-10-23T14:43:05;4.97;;;2.22;;
27408;SDS011;20413;50.782;7.152;2022-10-23T14:45:31;5.25;;;1.30;;
27408;SDS011;20413;50.782;7.152;2022-10-23T14:47:56;3.92;;;1.27;;
27408;SDS011;20413;50.782;7.152;2022-10-23T14:50:22;2.58;;;1.75;;
27408;SDS011;20413;50.782;7.152;2022-10-23T14:52:48;4.28;;;1.38;;
27408;SDS011;20413;50.782;7.152;2022-10-23T14:55:13;1.85;;;1.33;;
27408;SDS011;20413;50.782;7.152;2022-10-23T14:57:39;6.00;;;2.20;;
27408;SDS011;20413;50.782;7.152;2022-10-23T15:00:05;7.72;;;2.45;;
27408;SDS011;20413;50.782;7.152;2022-10-23T15:02:31;5.50;;;2.10;;
27408;SDS011;20413;50.782;7.152;2022-10-23T15:04:57;4.32;;;1.60;;
27408;SDS011;20413;50.782;7.152;2022-10-23T15:07:23;5.00;;;2.10;;
27408;SDS011;20413;50.782;7.152;2022-10-23T15:09:48;7.60;;;1.92;;
27408;SDS011;20413;50.782;7.152;2022-10-23T15:12:15;2.33;;;1.50;;
27408;SDS011;20413;50.782;7.152;2022-10-23T15:14:41;5.28;;;1.52;;
27408;SDS011;20413;50.782;7.152;2022-10-23T15:17:07;4.97;;;1.67;;
27408;SDS011;20413;50.782;7.152;2022-10-23T15:19:32;3.70;;;1.85;;
27408;SDS011;20413;50.782;7.152;2022-10-23T15:21:58;8.00;;;1.67;;
27408;SDS011;20413;50.782;7.152;2022-10-23T15:24:24;2.70;;;1.50;;
27408;SDS011;20413;50.782;7.152;2022-10-23T15:26:50;2.53;;;1.48;;
27408;SDS011;20413;50.782;7.152;2022-10-23T15:29:16;5.30;;;1.73;;
27408;SDS011;20413;50.782;7.152;2022-10-23T15:31:44;4.38;;;1.83;;
27408;SDS011;20413;50.782;7.152;2022-10-23T15:34:14;4.32;;;1.67;;
27408;SDS011;20413;50.782;7.152;2022-10-23T15:36:44;7.85;;;1.60;;
27408;SDS011;20413;50.782;7.152;2022-10-23T15:39:11;3.30;;;1.52;;
27408;SDS011;20413;50.782;7.152;2022-10-23T15:41:39;3.53;;;1.83;;
27408;SDS011;20413;50.782;7.152;2022-10-23T15:44:06;6.80;;;2.37;;
27408;SDS011;20413;50.782;7.152;2022-10-23T15:46:36;4.07;;;1.75;;
27408;SDS011;20413;50.782;7.152;2022-10-23T15:49:22;8.52;;;2.42;;
27408;SDS011;20413;50.782;7.152;2022-10-23T15:51:49;9.52;;;2.10;;
27408;SDS011;20413;50.782;7.152;2022-10-23T15:54:16;4.30;;;2.13;;
27408;SDS011;20413;50.782;7.152;2022-10-23T15:59:38;4.15;;;2.35;;
27408;SDS011;20413;50.782;7.152;2022-10-23T16:02:03;6.13;;;2.67;;
27408;SDS011;20413;50.782;7.152;2022-10-23T16:04:29;7.65;;;1.90;;
27408;SDS011;20413;50.782;7.152;2022-10-23T16:06:54;7.10;;;2.00;;
27408;SDS011;20413;50.782;7.152;2022-10-23T16:09:20;5.55;;;2.28;;
27408;SDS011;20413;50.782;7.152;2022-10-23T16:11:45;5.88;;;2.25;;
27408;SDS011;20413;50.782;7.152;2022-10-23T16:14:12;7.88;;;2.63;;
27408;SDS011;20413;50.782;7.152;2022-10-23T16:19:05;6.43;;;2.92;;
27408;SDS011;20413;50.782;7.152;2022-10-23T16:21:32;7.50;;;3.08;;
27408;SDS011;20413;50.782;7.152;2022-10-23T16:23:59;7.35;;;2.75;;
27408;SDS011;20413;50.782;7.152;2022-10-23T16:26:26;11.73;;;2.88;;
27408;SDS011;20413;50.782;7.152;2022-10-23T16:28:57;9.23;;;3.08;;
27408;SDS011;20413;50.782;7.152;2022-10-23T16:31:24;7.80;;;3.25;;
27408;SDS011;20413;50.782;7.152;2022-10-23T16:33:52;6.93;;;3.35;;